createdAt,value
2019-05-06T00:00:04.641Z,7.80
2019-05-06T00:02:34.157Z,7.83
2019-05-06T00:05:04.241Z,8.13
2019-05-06T00:07:34.304Z,7.70
2019-05-06T00:10:05.780Z,6.80
2019-05-06T00:12:35.978Z,7.35
2019-05-06T00:15:07.753Z,8.80
2019-05-06T00:17:44.414Z,8.30
2019-05-06T00:20:14.677Z,8.37
2019-05-06T00:22:45.813Z,7.47
2019-05-06T00:25:24.242Z,8.53
2019-05-06T00:28:24.530Z,7.70
2019-05-06T00:31:08.624Z,7.83
2019-05-06T00:33:26.845Z,7.97
2019-05-06T00:36:01.309Z,11.37
2019-05-06T00:38:33.992Z,11.20
2019-05-06T00:41:06.385Z,7.00
2019-05-06T00:43:36.044Z,7.87
2019-05-06T00:46:06.792Z,7.90
2019-05-06T00:48:36.537Z,9.03
2019-05-06T00:51:05.985Z,8.00
2019-05-06T00:53:37.228Z,9.03
2019-05-06T00:56:07.333Z,9.03
2019-05-06T00:58:37.777Z,8.00
2019-05-06T01:01:07.148Z,7.83
2019-05-06T01:03:36.541Z,8.80
2019-05-06T01:06:06.316Z,8.73
2019-05-06T01:08:35.723Z,10.00
2019-05-06T01:11:08.320Z,12.70
2019-05-06T01:13:54.648Z,9.83
2019-05-06T01:16:24.949Z,10.00
2019-05-06T01:18:56.201Z,12.17
2019-05-06T01:21:25.548Z,8.30
2019-05-06T01:23:54.921Z,9.63
2019-05-06T01:26:25.675Z,10.63
2019-05-06T01:28:55.142Z,8.50
2019-05-06T01:31:38.877Z,10.18
2019-05-06T01:33:57.538Z,7.73
2019-05-06T01:36:28.969Z,7.90
2019-05-06T01:39:20.116Z,8.53
2019-05-06T01:42:04.282Z,7.83
2019-05-06T01:44:33.905Z,8.20
2019-05-06T01:47:04.754Z,7.90
2019-05-06T01:49:34.809Z,9.58
2019-05-06T01:52:04.301Z,8.90
2019-05-06T01:54:34.646Z,7.83
2019-05-06T01:57:04.610Z,8.17
2019-05-06T01:59:34.312Z,9.45
2019-05-06T02:02:04.742Z,7.70
2019-05-06T02:04:34.374Z,7.70
2019-05-06T02:07:04.109Z,8.10
2019-05-06T02:09:34.301Z,10.43
2019-05-06T02:12:05.086Z,8.07
2019-05-06T02:14:34.514Z,9.63
2019-05-06T02:17:05.358Z,7.87
2019-05-06T02:19:35.973Z,8.38
2019-05-06T02:22:17.825Z,7.97
2019-05-06T02:25:00.132Z,9.37
2019-05-06T02:27:29.973Z,12.50
2019-05-06T02:30:18.701Z,8.67
2019-05-06T02:33:04.405Z,9.38
2019-05-06T02:35:41.114Z,9.03
2019-05-06T02:38:39.136Z,10.37
2019-05-06T02:41:03.801Z,9.80
2019-05-06T02:43:34.394Z,9.97
2019-05-06T02:46:04.533Z,12.13
2019-05-06T02:48:46.962Z,8.80
2019-05-06T02:51:24.383Z,10.23
2019-05-06T02:53:57.172Z,8.77
2019-05-06T02:56:33.359Z,8.87
2019-05-06T02:59:04.098Z,9.77
2019-05-06T03:01:34.212Z,10.30
2019-05-06T03:04:05.141Z,9.83
2019-05-06T03:06:36.502Z,7.95
2019-05-06T03:09:07.566Z,8.83
2019-05-06T03:11:37.020Z,9.53
2019-05-06T03:14:08.723Z,14.07
2019-05-06T03:16:43.947Z,8.80
2019-05-06T03:19:18.941Z,10.30
2019-05-06T03:22:06.446Z,9.27
2019-05-06T03:24:48.861Z,9.23
2019-05-06T03:27:19.072Z,8.65
2019-05-06T03:29:48.389Z,9.10
2019-05-06T03:32:24.711Z,10.80
2019-05-06T03:35:16.566Z,16.63
2019-05-06T03:37:24.563Z,11.90
2019-05-06T03:39:54.577Z,20.10
2019-05-06T03:42:24.883Z,10.23
2019-05-06T03:44:58.958Z,12.70
2019-05-06T03:47:48.298Z,11.80
2019-05-06T03:50:18.943Z,16.80
2019-05-06T03:52:48.765Z,16.03
2019-05-06T03:55:19.342Z,12.58
2019-05-06T03:57:49.282Z,10.10
2019-05-06T04:00:19.541Z,10.97
2019-05-06T04:02:48.965Z,10.98
2019-05-06T04:05:18.769Z,11.13
2019-05-06T04:07:52.757Z,11.00
2019-05-06T04:10:22.862Z,11.03
2019-05-06T04:12:54.901Z,9.60
2019-05-06T04:15:26.783Z,8.83
2019-05-06T04:18:03.930Z,9.50
2019-05-06T04:20:44.975Z,10.80
2019-05-06T04:23:34.872Z,11.20
2019-05-06T04:26:33.930Z,10.20
2019-05-06T04:29:05.229Z,8.60
2019-05-06T04:31:35.461Z,8.53
2019-05-06T04:34:14.081Z,9.67
2019-05-06T04:36:43.791Z,9.05
2019-05-06T04:39:13.130Z,18.00
2019-05-06T04:41:47.783Z,9.60
2019-05-06T04:44:18.960Z,9.58
2019-05-06T04:46:54.098Z,10.13
2019-05-06T04:49:23.696Z,13.10
2019-05-06T04:51:54.045Z,7.83
2019-05-06T04:54:26.649Z,10.37
2019-05-06T04:56:55.429Z,11.27
2019-05-06T04:59:25.017Z,8.90
2019-05-06T05:01:54.598Z,8.50
2019-05-06T05:04:32.725Z,8.60
2019-05-06T05:07:03.376Z,10.30
2019-05-06T05:09:34.377Z,7.40
2019-05-06T05:12:14.544Z,8.10
2019-05-06T05:14:55.113Z,7.20
2019-05-06T05:17:38.588Z,7.80
2019-05-06T05:20:08.748Z,8.33
2019-05-06T05:22:38.517Z,13.97
2019-05-06T05:25:08.404Z,10.87
2019-05-06T05:27:37.839Z,9.80
2019-05-06T05:30:07.769Z,8.37
2019-05-06T05:32:37.760Z,12.37
2019-05-06T05:35:07.900Z,8.10
2019-05-06T05:37:38.721Z,12.70
2019-05-06T05:40:08.532Z,13.40
2019-05-06T05:42:49.152Z,9.57
2019-05-06T05:45:19.293Z,8.83
2019-05-06T05:47:52.276Z,9.20
2019-05-06T05:50:34.772Z,10.32
2019-05-06T05:53:05.029Z,9.37
2019-05-06T05:55:35.128Z,9.20
2019-05-06T05:58:05.805Z,9.67
2019-05-06T06:00:36.628Z,7.80
2019-05-06T06:03:07.225Z,8.13
2019-05-06T06:05:37.061Z,21.27
2019-05-06T06:08:07.625Z,11.30
2019-05-06T06:10:43.150Z,17.50
2019-05-06T06:13:13.102Z,12.87
2019-05-06T06:16:05.381Z,21.37
2019-05-06T06:19:03.321Z,10.18
2019-05-06T06:21:52.408Z,12.50
2019-05-06T06:24:26.669Z,11.90
2019-05-06T06:27:05.062Z,9.83
2019-05-06T06:29:35.835Z,11.45
2019-05-06T06:32:17.320Z,8.93
2019-05-06T06:34:56.162Z,8.13
2019-05-06T06:37:48.953Z,7.40
2019-05-06T06:40:22.271Z,7.60
2019-05-06T06:42:55.220Z,8.87
2019-05-06T06:45:24.625Z,10.70
2019-05-06T06:47:55.681Z,7.83
2019-05-06T06:50:25.921Z,7.63
2019-05-06T06:52:55.313Z,10.10
2019-05-06T06:55:25.443Z,6.67
2019-05-06T06:58:19.069Z,9.70
2019-05-06T07:01:06.625Z,6.23
2019-05-06T07:03:43.847Z,8.60
2019-05-06T07:06:28.203Z,7.43
2019-05-06T07:08:57.620Z,9.23
2019-05-06T07:11:27.753Z,6.70
2019-05-06T07:13:58.843Z,7.40
2019-05-06T07:16:29.111Z,6.05
2019-05-06T07:18:58.663Z,7.47
2019-05-06T07:21:34.433Z,5.60
2019-05-06T07:24:04.268Z,6.83
2019-05-06T07:26:42.095Z,8.55
2019-05-06T07:29:21.486Z,6.23
2019-05-06T07:31:43.096Z,7.30
2019-05-06T07:34:12.768Z,7.23
2019-05-06T07:36:43.097Z,7.37
2019-05-06T07:39:15.322Z,7.70
2019-05-06T07:41:49.064Z,7.00
2019-05-06T07:44:33.386Z,4.80
2019-05-06T07:47:42.662Z,11.67
2019-05-06T07:50:13.066Z,5.72
2019-05-06T07:53:02.305Z,4.80
2019-05-06T07:55:32.759Z,3.83
2019-05-06T07:58:04.240Z,4.73
2019-05-06T08:00:34.586Z,8.80
2019-05-06T08:03:04.270Z,3.83
2019-05-06T08:05:34.349Z,5.17
2019-05-06T08:08:03.953Z,4.40
2019-05-06T08:10:33.649Z,4.30
2019-05-06T08:13:03.834Z,6.43
2019-05-06T08:15:33.205Z,4.83
2019-05-06T08:18:03.696Z,5.90
2019-05-06T08:20:39.377Z,8.30
2019-05-06T08:23:36.806Z,5.53
2019-05-06T08:26:17.354Z,7.20
2019-05-06T08:28:44.713Z,4.43
2019-05-06T08:31:16.549Z,4.17
2019-05-06T08:33:46.053Z,6.30
2019-05-06T08:36:22.602Z,3.80
2019-05-06T08:38:59.305Z,8.70
2019-05-06T08:41:30.580Z,7.37
2019-05-06T08:44:02.388Z,6.50
2019-05-06T08:46:33.831Z,5.67
2019-05-06T08:49:03.807Z,4.47
2019-05-06T08:51:47.004Z,7.10
2019-05-06T08:54:25.011Z,9.18
2019-05-06T08:56:55.431Z,6.90
2019-05-06T08:59:25.636Z,6.80
2019-05-06T09:01:58.175Z,5.97
2019-05-06T09:04:29.441Z,7.47
2019-05-06T09:07:00.177Z,9.20
2019-05-06T09:09:32.479Z,6.97
2019-05-06T09:12:02.915Z,5.87
2019-05-06T09:14:32.822Z,5.87
2019-05-06T09:17:03.122Z,12.67
2019-05-06T09:19:33.308Z,5.78
2019-05-06T09:22:06.408Z,5.67
2019-05-06T09:24:37.668Z,6.53
2019-05-06T09:27:15.828Z,5.87
2019-05-06T09:29:48.253Z,5.63
2019-05-06T09:32:35.694Z,6.87
2019-05-06T09:35:03.057Z,5.90
2019-05-06T09:37:33.616Z,5.15
2019-05-06T09:40:03.197Z,5.30
2019-05-06T09:42:32.546Z,9.03
2019-05-06T09:45:02.532Z,6.63
2019-05-06T09:47:44.552Z,7.03
2019-05-06T09:50:16.646Z,7.70
2019-05-06T09:52:47.902Z,6.12
2019-05-06T09:55:39.316Z,5.86
2019-05-06T09:58:09.530Z,4.80
2019-05-06T10:00:43.167Z,6.53
2019-05-06T10:03:13.515Z,7.30
2019-05-06T10:05:44.091Z,7.00
2019-05-06T10:08:14.161Z,5.33
2019-05-06T10:10:56.033Z,7.23
2019-05-06T10:13:16.575Z,4.97
2019-05-06T10:15:46.669Z,5.80
2019-05-06T10:18:16.687Z,5.00
2019-05-06T10:20:47.270Z,6.72
2019-05-06T10:23:19.466Z,4.83
2019-05-06T10:25:52.317Z,4.30
2019-05-06T10:28:35.157Z,5.62
2019-05-06T10:31:06.466Z,5.50
2019-05-06T10:33:56.597Z,6.03
2019-05-06T10:36:32.531Z,5.00
2019-05-06T10:39:07.537Z,7.20
2019-05-06T10:41:42.221Z,4.90
2019-05-06T10:44:29.104Z,5.60
2019-05-06T10:46:58.765Z,4.73
2019-05-06T10:49:29.446Z,5.63
2019-05-06T10:52:09.169Z,6.97
2019-05-06T10:54:42.021Z,5.53
2019-05-06T10:57:22.046Z,6.75
2019-05-06T10:59:51.529Z,5.40
2019-05-06T11:02:43.020Z,5.90
2019-05-06T11:05:14.255Z,5.95
2019-05-06T11:07:45.229Z,4.87
2019-05-06T11:10:25.014Z,7.78
2019-05-06T11:12:52.346Z,7.40
2019-05-06T11:15:27.185Z,5.70
2019-05-06T11:17:56.600Z,8.50
2019-05-06T11:20:26.998Z,5.80
2019-05-06T11:22:56.512Z,6.73
2019-05-06T11:25:26.994Z,8.73
2019-05-06T11:27:57.498Z,7.23
2019-05-06T11:30:49.751Z,5.58
2019-05-06T11:33:48.115Z,5.12
2019-05-06T11:36:27.709Z,5.83
2019-05-06T11:38:59.601Z,7.53
2019-05-06T11:41:28.992Z,5.43
2019-05-06T11:43:59.092Z,6.60
2019-05-06T11:46:28.539Z,9.33
2019-05-06T11:48:58.249Z,11.10
2019-05-06T11:51:29.508Z,7.57
2019-05-06T11:53:58.892Z,6.73
2019-05-06T11:56:28.273Z,9.07
2019-05-06T11:58:59.465Z,6.10
2019-05-06T12:01:57.838Z,6.33
2019-05-06T12:04:28.268Z,6.03
2019-05-06T12:07:10.268Z,4.80
2019-05-06T12:09:29.153Z,7.72
2019-05-06T12:11:59.353Z,12.20
2019-05-06T12:14:29.125Z,4.80
2019-05-06T12:17:02.039Z,6.40
2019-05-06T12:19:32.746Z,9.30
2019-05-06T12:22:02.477Z,5.47
2019-05-06T12:24:34.381Z,7.00
2019-05-06T12:27:03.802Z,16.03
2019-05-06T12:29:33.525Z,7.87
2019-05-06T12:32:15.276Z,24.70
2019-05-06T12:34:45.648Z,11.10
2019-05-06T12:37:19.136Z,7.92
2019-05-06T12:39:53.696Z,7.80
2019-05-06T12:42:29.121Z,10.80
2019-05-06T12:45:23.782Z,12.30
2019-05-06T12:48:21.201Z,6.23
2019-05-06T12:50:53.547Z,6.37
2019-05-06T12:53:23.254Z,6.60
2019-05-06T12:55:53.217Z,8.00
2019-05-06T12:58:24.447Z,4.57
2019-05-06T13:00:54.538Z,7.43
2019-05-06T13:03:25.384Z,12.13
2019-05-06T13:05:55.732Z,6.20
2019-05-06T13:08:29.037Z,12.23
2019-05-06T13:10:57.562Z,8.17
2019-05-06T13:13:26.945Z,5.60
2019-05-06T13:15:56.702Z,11.80
2019-05-06T13:18:26.125Z,5.70
2019-05-06T13:20:56.392Z,10.33
2019-05-06T13:23:35.350Z,5.20
2019-05-06T13:26:06.111Z,12.47
2019-05-06T13:28:38.452Z,12.57
2019-05-06T13:31:17.192Z,9.70
2019-05-06T13:33:46.429Z,9.70
2019-05-06T13:36:16.854Z,17.13
2019-05-06T13:38:46.456Z,13.73
2019-05-06T13:41:18.145Z,16.10
2019-05-06T13:44:24.750Z,9.10
2019-05-06T13:46:56.064Z,6.83
2019-05-06T13:49:59.765Z,6.80
2019-05-06T13:52:35.905Z,7.50
2019-05-06T13:55:07.860Z,6.78
2019-05-06T13:57:39.372Z,7.70
2019-05-06T14:00:10.523Z,7.50
2019-05-06T14:02:53.193Z,8.17
2019-05-06T14:05:25.196Z,12.20
2019-05-06T14:07:55.290Z,9.77
2019-05-06T14:10:25.411Z,9.47
2019-05-06T14:12:55.123Z,9.83
2019-05-06T14:15:25.002Z,10.40
2019-05-06T14:17:54.681Z,6.70
2019-05-06T14:20:24.694Z,10.20
2019-05-06T14:22:54.124Z,10.35
2019-05-06T14:25:38.424Z,6.00
2019-05-06T14:28:22.542Z,9.73
2019-05-06T14:30:56.120Z,6.90
2019-05-06T14:33:26.394Z,7.97
2019-05-06T14:35:55.842Z,7.30
2019-05-06T14:38:26.320Z,7.15
2019-05-06T14:41:08.172Z,8.40
2019-05-06T14:43:36.660Z,8.87
2019-05-06T14:46:06.395Z,6.80
2019-05-06T14:48:36.262Z,6.83
2019-05-06T14:51:07.720Z,8.23
2019-05-06T14:53:37.081Z,6.40
2019-05-06T14:56:17.844Z,5.83
2019-05-06T14:59:06.183Z,10.27
2019-05-06T15:01:40.160Z,7.30
2019-05-06T15:04:12.779Z,8.10
2019-05-06T15:06:42.676Z,92.10
2019-05-06T15:09:15.571Z,43.98
2019-05-06T15:11:45.480Z,13.90
2019-05-06T15:14:16.878Z,8.63
2019-05-06T15:16:46.252Z,8.40
2019-05-06T15:19:22.737Z,11.55
2019-05-06T15:21:54.332Z,12.40
2019-05-06T15:24:24.444Z,11.87
2019-05-06T15:26:54.364Z,12.97
2019-05-06T15:29:24.962Z,8.10
2019-05-06T15:32:13.073Z,12.57
2019-05-06T15:34:57.606Z,10.10
2019-05-06T15:37:38.006Z,10.03
2019-05-06T15:40:09.357Z,9.65
2019-05-06T15:42:39.070Z,10.70
2019-05-06T15:45:12.437Z,12.10
2019-05-06T15:47:42.799Z,11.23
2019-05-06T15:50:14.177Z,9.80
2019-05-06T15:52:43.842Z,11.07
2019-05-06T15:55:13.748Z,10.03
2019-05-06T15:57:44.504Z,9.75
2019-05-06T16:00:16.380Z,12.73
2019-05-06T16:02:46.337Z,10.07
2019-05-06T16:05:19.954Z,9.70
2019-05-06T16:07:48.494Z,13.93
2019-05-06T16:10:22.411Z,10.63
2019-05-06T16:12:53.487Z,15.10
2019-05-06T16:15:24.946Z,8.77
2019-05-06T16:17:54.072Z,11.75
2019-05-06T16:20:24.417Z,9.90
2019-05-06T16:23:03.246Z,12.83
2019-05-06T16:25:34.229Z,8.03
2019-05-06T16:28:04.595Z,8.07
2019-05-06T16:30:34.049Z,10.00
2019-05-06T16:33:04.078Z,10.07
2019-05-06T16:35:35.270Z,9.80
2019-05-06T16:38:05.174Z,8.23
2019-05-06T16:40:35.637Z,8.35
2019-05-06T16:43:05.873Z,12.83
2019-05-06T16:45:38.045Z,11.60
2019-05-06T16:48:07.847Z,8.40
2019-05-06T16:50:37.384Z,13.73
2019-05-06T16:53:08.271Z,8.70
2019-05-06T16:55:55.712Z,7.60
2019-05-06T16:58:32.148Z,9.33
2019-05-06T17:01:03.292Z,8.70
2019-05-06T17:03:47.296Z,15.43
2019-05-06T17:06:23.247Z,8.83
2019-05-06T17:08:52.982Z,10.03
2019-05-06T17:11:30.593Z,9.50
2019-05-06T17:13:57.678Z,9.10
2019-05-06T17:16:29.483Z,8.77
2019-05-06T17:18:58.875Z,7.20
2019-05-06T17:21:28.332Z,18.07
2019-05-06T17:23:58.483Z,11.57
2019-05-06T17:26:28.698Z,10.30
2019-05-06T17:29:10.967Z,8.65
2019-05-06T17:31:59.277Z,12.23
2019-05-06T17:34:32.674Z,10.00
2019-05-06T17:37:12.504Z,8.40
2019-05-06T17:39:42.514Z,8.63
2019-05-06T17:42:13.681Z,8.50
2019-05-06T17:44:42.968Z,12.87
2019-05-06T17:47:32.094Z,8.67
2019-05-06T17:50:02.824Z,12.90
2019-05-06T17:52:33.399Z,9.20
2019-05-06T17:55:04.088Z,15.20
2019-05-06T17:57:33.425Z,8.77
2019-05-06T18:00:03.341Z,10.93
2019-05-06T18:02:33.684Z,9.45
2019-05-06T18:05:04.673Z,14.03
2019-05-06T18:07:34.805Z,12.97
2019-05-06T18:10:04.382Z,12.93
2019-05-06T18:12:35.352Z,15.30
2019-05-06T18:15:07.495Z,14.27
2019-05-06T18:17:37.312Z,13.60
2019-05-06T18:20:13.155Z,12.70
2019-05-06T18:22:41.456Z,15.63
2019-05-06T18:25:12.683Z,17.27
2019-05-06T18:27:44.157Z,12.00
2019-05-06T18:30:23.245Z,12.57
2019-05-06T18:32:47.188Z,13.67
2019-05-06T18:35:22.945Z,14.65
2019-05-06T18:37:52.838Z,15.80
2019-05-06T18:40:23.229Z,17.10
2019-05-06T18:42:53.726Z,22.73
2019-05-06T18:45:23.262Z,18.62
2019-05-06T18:47:55.103Z,17.50
2019-05-06T18:50:27.173Z,24.25
2019-05-06T18:52:57.045Z,35.73
2019-05-06T18:55:28.265Z,38.60
2019-05-06T18:57:58.045Z,50.53
2019-05-06T19:00:27.441Z,64.17
2019-05-06T19:02:57.453Z,27.53
2019-05-06T19:05:32.492Z,40.10
2019-05-06T19:08:04.562Z,30.40
2019-05-06T19:10:38.538Z,38.90
2019-05-06T19:13:09.376Z,37.83
2019-05-06T19:15:40.252Z,31.30
2019-05-06T19:18:12.805Z,30.67
2019-05-06T19:20:42.448Z,28.97
2019-05-06T19:23:22.400Z,27.47
2019-05-06T19:25:59.849Z,23.57
2019-05-06T19:28:36.630Z,23.27
2019-05-06T19:31:12.215Z,17.87
2019-05-06T19:33:43.162Z,15.05
2019-05-06T19:36:15.434Z,20.30
2019-05-06T19:38:45.971Z,17.73
2019-05-06T19:41:18.193Z,19.27
2019-05-06T19:43:47.792Z,19.10
2019-05-06T19:46:19.923Z,24.90
2019-05-06T19:48:52.278Z,21.17
2019-05-06T19:51:22.580Z,20.20
2019-05-06T19:53:53.660Z,19.23
2019-05-06T19:56:24.236Z,20.10
2019-05-06T19:58:53.737Z,18.77
2019-05-06T20:01:23.702Z,20.35
2019-05-06T20:03:54.016Z,16.95
2019-05-06T20:06:42.429Z,19.23
2019-05-06T20:09:42.547Z,30.93
2019-05-06T20:12:17.322Z,27.13
2019-05-06T20:14:47.215Z,23.37
2019-05-06T20:17:18.704Z,18.43
2019-05-06T20:19:51.797Z,17.45
2019-05-06T20:22:22.986Z,18.83
2019-05-06T20:24:52.516Z,19.07
2019-05-06T20:27:22.108Z,21.73
2019-05-06T20:29:52.317Z,17.40
2019-05-06T20:32:23.347Z,15.68
2019-05-06T20:34:52.731Z,17.73
2019-05-06T20:37:23.378Z,21.07
2019-05-06T20:39:53.187Z,17.77
2019-05-06T20:42:24.850Z,18.75
2019-05-06T20:44:56.282Z,27.40
2019-05-06T20:47:25.712Z,16.40
2019-05-06T20:49:56.475Z,20.52
2019-05-06T20:52:25.877Z,27.15
2019-05-06T20:54:57.541Z,18.33
2019-05-06T20:57:32.024Z,22.40
2019-05-06T21:00:03.627Z,27.63
2019-05-06T21:02:39.050Z,19.03
2019-05-06T21:05:10.916Z,17.00
2019-05-06T21:07:43.255Z,17.83
2019-05-06T21:10:17.980Z,26.23
2019-05-06T21:12:47.746Z,21.93
2019-05-06T21:15:43.265Z,20.75
2019-05-06T21:18:13.196Z,20.17
2019-05-06T21:20:43.599Z,19.87
2019-05-06T21:23:16.247Z,17.13
2019-05-06T21:25:45.921Z,15.97
2019-05-06T21:28:16.635Z,27.60
2019-05-06T21:30:46.708Z,22.67
2019-05-06T21:33:18.273Z,20.27
2019-05-06T21:35:52.301Z,19.43
2019-05-06T21:38:23.203Z,19.20
2019-05-06T21:40:52.981Z,23.30
2019-05-06T21:43:22.859Z,20.13
2019-05-06T21:45:54.167Z,20.03
2019-05-06T21:48:24.755Z,19.98
2019-05-06T21:50:54.891Z,21.35
2019-05-06T21:53:24.661Z,20.50
2019-05-06T21:55:54.369Z,19.62
2019-05-06T21:58:23.838Z,19.10
2019-05-06T22:01:02.343Z,28.80
2019-05-06T22:03:32.851Z,17.77
2019-05-06T22:06:02.636Z,20.93
2019-05-06T22:08:32.800Z,34.90
2019-05-06T22:11:03.074Z,20.00
2019-05-06T22:13:33.523Z,20.40
2019-05-06T22:16:07.180Z,20.00
2019-05-06T22:18:37.009Z,22.67
2019-05-06T22:21:22.515Z,19.87
2019-05-06T22:23:59.743Z,22.42
2019-05-06T22:26:32.316Z,17.20
2019-05-06T22:29:02.033Z,22.07
2019-05-06T22:31:33.114Z,20.50
2019-05-06T22:34:02.949Z,18.83
2019-05-06T22:36:32.480Z,22.40
2019-05-06T22:39:04.131Z,20.63
2019-05-06T22:41:33.532Z,17.60
2019-05-06T22:44:13.158Z,19.42
2019-05-06T22:46:34.605Z,17.43
2019-05-06T22:49:04.503Z,17.67
2019-05-06T22:51:36.494Z,18.10
2019-05-06T22:54:08.322Z,17.73
2019-05-06T22:56:37.765Z,21.33
2019-05-06T22:59:07.418Z,22.62
2019-05-06T23:01:55.090Z,17.43
2019-05-06T23:04:26.838Z,23.25
2019-05-06T23:06:57.225Z,15.20
2019-05-06T23:09:27.032Z,15.20
2019-05-06T23:12:04.744Z,19.83
2019-05-06T23:14:36.884Z,16.07
2019-05-06T23:17:04.987Z,18.80
2019-05-06T23:19:34.365Z,17.07
2019-05-06T23:22:05.253Z,12.93
2019-05-06T23:24:35.794Z,17.15
2019-05-06T23:27:12.519Z,17.23
2019-05-06T23:29:47.333Z,18.33
2019-05-06T23:32:22.955Z,15.08
2019-05-06T23:34:52.520Z,14.63
2019-05-06T23:37:22.968Z,16.57
2019-05-06T23:40:33.075Z,22.43
2019-05-06T23:43:38.694Z,19.53
2019-05-06T23:46:43.487Z,15.18
2019-05-06T23:49:48.671Z,13.80
2019-05-06T23:52:58.360Z,19.80
2019-05-06T23:56:03.131Z,15.45
2019-05-06T23:58:32.969Z,15.63
